createdAt,value
2017-01-02T00:00:13.110Z,-70
2017-01-02T00:05:09.461Z,-69
2017-01-02T00:10:05.804Z,-70
2017-01-02T00:15:02.082Z,-69
2017-01-02T00:19:57.967Z,-70
2017-01-02T00:24:54.722Z,-69
2017-01-02T00:29:51.048Z,-69
2017-01-02T00:34:47.041Z,-70
2017-01-02T00:39:43.336Z,-69
2017-01-02T00:44:39.785Z,-70
2017-01-02T00:49:36.142Z,-69
2017-01-02T00:54:32.980Z,-69
2017-01-02T00:59:29.769Z,-72
2017-01-02T01:04:26.320Z,-69
2017-01-02T01:09:22.636Z,-72
2017-01-02T01:14:18.979Z,-69
2017-01-02T01:19:15.198Z,-69
2017-01-02T01:24:11.496Z,-69
2017-01-02T01:29:07.773Z,-70
2017-01-02T01:34:04.078Z,-71
2017-01-02T01:39:01.813Z,-71
2017-01-02T01:43:57.817Z,-71
2017-01-02T01:48:54.140Z,-70
2017-01-02T01:53:50.720Z,-70
2017-01-02T01:58:47.116Z,-71
2017-01-02T02:03:43.411Z,-70
2017-01-02T02:08:39.689Z,-69
2017-01-02T02:13:36.174Z,-71
2017-01-02T02:18:32.516Z,-70
2017-01-02T02:23:28.889Z,-71
2017-01-02T02:28:25.114Z,-71
2017-01-02T02:33:22.980Z,-71
2017-01-02T02:38:19.324Z,-69
2017-01-02T02:43:15.658Z,-71
2017-01-02T02:48:12.384Z,-71
2017-01-02T02:53:08.866Z,-71
2017-01-02T02:58:05.108Z,-70
2017-01-02T03:03:01.518Z,-71
2017-01-02T03:07:57.743Z,-71
2017-01-02T03:12:54.321Z,-71
2017-01-02T03:17:50.647Z,-70
2017-01-02T03:22:47.258Z,-74
2017-01-02T03:27:44.064Z,-76
2017-01-02T03:32:40.450Z,-73
2017-01-02T03:37:36.661Z,-70
2017-01-02T03:42:33.045Z,-71
2017-01-02T03:47:30.677Z,-74
2017-01-02T03:52:27.182Z,-74
2017-01-02T03:57:23.540Z,-71
2017-01-02T04:02:19.720Z,-71
2017-01-02T04:07:18.579Z,-73
2017-01-02T04:12:14.224Z,-70
2017-01-02T04:17:10.521Z,-73
2017-01-02T04:22:06.769Z,-68
2017-01-02T04:27:03.188Z,-74
2017-01-02T04:31:59.395Z,-71
2017-01-02T04:36:55.672Z,-70
2017-01-02T04:41:52.038Z,-70
2017-01-02T04:46:48.354Z,-69
2017-01-02T04:51:44.575Z,-71
2017-01-02T04:56:41.047Z,-72
2017-01-02T05:01:37.454Z,-71
2017-01-02T05:06:33.932Z,-70
2017-01-02T05:11:30.244Z,-70
2017-01-02T05:16:26.742Z,-71
2017-01-02T05:21:23.724Z,-69
2017-01-02T05:26:20.028Z,-70
2017-01-02T05:31:16.460Z,-69
2017-01-02T05:36:12.663Z,-69
2017-01-02T05:41:09.169Z,-70
2017-01-02T05:46:05.488Z,-71
2017-01-02T05:51:01.972Z,-70
2017-01-02T05:55:58.290Z,-70
2017-01-02T06:00:54.967Z,-69
2017-01-02T06:05:51.488Z,-70
2017-01-02T06:10:47.758Z,-68
2017-01-02T06:15:43.933Z,-69
2017-01-02T06:20:40.353Z,-69
2017-01-02T06:25:36.673Z,-71
2017-01-02T06:30:32.825Z,-70
2017-01-02T06:35:29.146Z,-71
2017-01-02T06:40:25.501Z,-71
2017-01-02T06:45:21.773Z,-71
2017-01-02T06:50:18.041Z,-71
2017-01-02T06:55:14.350Z,-68
2017-01-02T07:00:10.509Z,-69
2017-01-02T07:05:06.634Z,-69
2017-01-02T07:10:03.051Z,-68
2017-01-02T07:14:59.375Z,-70
2017-01-02T07:19:55.764Z,-70
2017-01-02T07:24:52.023Z,-68
2017-01-02T07:29:48.647Z,-70
2017-01-02T07:34:44.869Z,-69
2017-01-02T07:39:41.226Z,-70
2017-01-02T07:44:37.462Z,-69
2017-01-02T07:49:33.684Z,-70
2017-01-02T07:54:30.006Z,-69
2017-01-02T07:59:26.395Z,-69
2017-01-02T08:04:22.374Z,-71
2017-01-02T08:09:19.208Z,-71
2017-01-02T08:14:15.509Z,-69
2017-01-02T08:19:11.970Z,-68
2017-01-02T08:24:08.935Z,-69
2017-01-02T08:29:05.245Z,-69
2017-01-02T08:34:01.728Z,-70
2017-01-02T08:38:58.204Z,-69
2017-01-02T08:43:56.790Z,-71
2017-01-02T08:48:53.178Z,-70
2017-01-02T08:53:49.666Z,-69
2017-01-02T08:58:46.154Z,-70
2017-01-02T09:03:42.981Z,-68
2017-01-02T09:08:39.212Z,-70
2017-01-02T09:13:35.184Z,-69
2017-01-02T09:18:31.519Z,-69
2017-01-02T09:23:28.036Z,-71
2017-01-02T09:28:24.361Z,-69
2017-01-02T09:33:20.795Z,-69
2017-01-02T09:38:17.228Z,-68
2017-01-02T09:43:13.864Z,-71
2017-01-02T09:48:10.290Z,-71
2017-01-02T09:53:07.045Z,-69
2017-01-02T09:58:03.465Z,-68
2017-01-02T10:02:59.872Z,-69
2017-01-02T10:07:56.497Z,-68
2017-01-02T10:12:53.122Z,-69
2017-01-02T10:17:50.017Z,-68
2017-01-02T10:22:47.039Z,-68
2017-01-02T10:27:43.217Z,-70
2017-01-02T10:32:39.779Z,-69
2017-01-02T10:37:36.891Z,-70
2017-01-02T10:42:33.349Z,-69
2017-01-02T10:47:29.838Z,-71
2017-01-02T10:52:26.422Z,-71
2017-01-02T10:57:23.059Z,-72
2017-01-02T11:02:19.719Z,-69
2017-01-02T11:07:16.915Z,-71
2017-01-02T11:12:13.428Z,-69
2017-01-02T11:17:09.930Z,-68
2017-01-02T11:22:06.467Z,-69
2017-01-02T11:27:02.633Z,-69
2017-01-02T11:31:58.845Z,-68
2017-01-02T11:36:54.989Z,-69
2017-01-02T11:41:51.222Z,-70
2017-01-02T11:46:48.030Z,-71
2017-01-02T11:51:44.466Z,-70
2017-01-02T11:56:40.782Z,-71
2017-01-02T12:01:37.404Z,-71
2017-01-02T12:06:33.822Z,-70
2017-01-02T12:11:30.639Z,-71
2017-01-02T12:16:27.680Z,-71
2017-01-02T12:21:24.275Z,-71
2017-01-02T12:26:20.874Z,-71
2017-01-02T12:31:16.972Z,-71
2017-01-02T12:36:13.411Z,-69
2017-01-02T12:41:09.676Z,-69
2017-01-02T12:46:06.048Z,-71
2017-01-02T12:51:02.566Z,-69
2017-01-02T12:55:58.988Z,-69
2017-01-02T13:00:55.436Z,-71
2017-01-02T13:10:51.788Z,-71
2017-01-02T13:15:48.167Z,-69
2017-01-02T13:20:44.515Z,-69
2017-01-02T13:25:40.961Z,-70
2017-01-02T13:30:36.760Z,-71
2017-01-02T13:35:32.965Z,-72
2017-01-02T13:40:30.258Z,-71
2017-01-02T13:45:26.475Z,-71
2017-01-02T13:50:22.751Z,-70
2017-01-02T13:55:19.678Z,-71
2017-01-02T14:00:15.868Z,-71
2017-01-02T14:05:11.829Z,-71
2017-01-02T14:10:09.115Z,-71
2017-01-02T14:15:05.408Z,-73
2017-01-02T14:20:02.574Z,-71
2017-01-02T14:24:59.846Z,-70
2017-01-02T14:29:55.739Z,-72
2017-01-02T14:34:52.197Z,-73
2017-01-02T14:39:48.490Z,-69
2017-01-02T14:44:44.815Z,-70
2017-01-02T14:49:41.089Z,-71
2017-01-02T14:54:36.997Z,-71
2017-01-02T14:59:33.264Z,-71
2017-01-02T15:04:29.749Z,-71
2017-01-02T15:09:26.041Z,-70
2017-01-02T15:14:22.365Z,-71
2017-01-02T15:19:18.706Z,-72
2017-01-02T15:24:15.061Z,-70
2017-01-02T15:29:11.462Z,-71
2017-01-02T15:34:07.879Z,-73
2017-01-02T15:39:04.073Z,-73
2017-01-02T15:44:00.237Z,-73
2017-01-02T15:48:56.601Z,-72
2017-01-02T15:53:53.013Z,-73
2017-01-02T15:58:49.240Z,-73
2017-01-02T16:03:45.762Z,-74
2017-01-02T16:08:42.223Z,-73
2017-01-02T16:13:38.523Z,-74
2017-01-02T16:18:34.681Z,-73
2017-01-02T16:23:31.921Z,-74
2017-01-02T16:28:28.329Z,-73
2017-01-02T16:33:24.612Z,-74
2017-01-02T16:38:20.780Z,-74
2017-01-02T16:43:18.018Z,-75
2017-01-02T16:48:14.499Z,-73
2017-01-02T16:53:10.999Z,-73
2017-01-02T16:58:07.523Z,-73
2017-01-02T17:03:03.776Z,-74
2017-01-02T17:08:00.114Z,-73
2017-01-02T17:12:56.355Z,-73
2017-01-02T17:17:52.696Z,-74
2017-01-02T17:22:48.811Z,-73
2017-01-02T17:27:44.843Z,-73
2017-01-02T17:32:41.954Z,-73
2017-01-02T17:37:38.355Z,-73
2017-01-02T17:42:34.795Z,-76
2017-01-02T17:47:31.309Z,-75
2017-01-02T17:52:27.346Z,-75
2017-01-02T17:57:23.750Z,-75
2017-01-02T18:02:20.610Z,-73
2017-01-02T18:07:16.793Z,-76
2017-01-02T18:12:13.506Z,-72
2017-01-02T18:17:10.040Z,-74
2017-01-02T18:22:06.828Z,-73
2017-01-02T18:27:03.469Z,-75
2017-01-02T18:31:59.866Z,-76
2017-01-02T18:36:57.026Z,-76
2017-01-02T18:41:56.137Z,-76
2017-01-02T18:51:53.132Z,-77
2017-01-02T18:56:49.485Z,-77
2017-01-02T19:01:45.846Z,-74
2017-01-02T19:06:43.311Z,-75
2017-01-02T19:11:40.620Z,-77
2017-01-02T19:16:36.902Z,-76
2017-01-02T19:21:33.554Z,-76
2017-01-02T19:26:29.583Z,-75
2017-01-02T19:31:26.364Z,-77
2017-01-02T19:36:22.540Z,-76
2017-01-02T19:41:18.969Z,-77
2017-01-02T19:46:15.705Z,-76
2017-01-02T19:51:12.048Z,-77
2017-01-02T19:56:08.435Z,-79
2017-01-02T20:01:04.895Z,-77
2017-01-02T20:06:02.118Z,-79
2017-01-02T20:10:58.505Z,-77
2017-01-02T20:15:55.235Z,-77
2017-01-02T20:20:51.801Z,-77
2017-01-02T20:25:48.800Z,-79
2017-01-02T20:30:45.217Z,-75
2017-01-02T20:35:41.616Z,-73
2017-01-02T20:40:38.487Z,-77
2017-01-02T20:45:34.667Z,-76
2017-01-02T20:50:31.144Z,-75
2017-01-02T20:55:28.447Z,-74
2017-01-02T21:00:24.940Z,-77
2017-01-02T21:05:21.876Z,-77
2017-01-02T21:10:18.005Z,-76
2017-01-02T21:15:16.299Z,-76
2017-01-02T21:20:12.535Z,-76
2017-01-02T21:25:08.957Z,-77
2017-01-02T21:30:06.622Z,-76
2017-01-02T21:35:02.579Z,-74
2017-01-02T21:39:58.762Z,-76
2017-01-02T21:44:55.099Z,-75
2017-01-02T21:49:52.821Z,-78
2017-01-02T21:54:49.160Z,-76
2017-01-02T21:59:45.568Z,-78
2017-01-02T22:04:42.137Z,-79
2017-01-02T22:14:42.816Z,-80
2017-01-02T22:19:42.071Z,-75
2017-01-02T22:29:40.556Z,-74
2017-01-02T22:34:37.491Z,-76
2017-01-02T22:49:38.994Z,-77
2017-01-02T22:54:36.927Z,-75
2017-01-02T22:59:35.129Z,-77
2017-01-02T23:04:30.750Z,-74
2017-01-02T23:09:27.641Z,-74
2017-01-02T23:14:25.063Z,-75
2017-01-02T23:24:25.713Z,-74
2017-01-02T23:29:22.244Z,-77
2017-01-02T23:34:18.644Z,-76
2017-01-02T23:39:15.089Z,-75
2017-01-02T23:44:13.647Z,-75
2017-01-02T23:49:11.066Z,-74
2017-01-02T23:54:07.874Z,-75
2017-01-02T23:59:04.835Z,-74
